Time;durP1;ratioP1;P1;durP2;ratioP2;P2;SDS_P1;SDS_P2;PMS_P1;PMS_P2;Temp;Humidity;BMP_temperature;BMP_pressure;BME280_temperature;BME280_humidity;BME280_pressure;Samples;Min_cycle;Max_cycle;Signal;HPM_P1;HPM_P2
2021/07/30 00:00:21;;;;;;;11.85;6.67;;;;;;;20.31;96.42;98809.88;1754235;81;20925;-74
2021/07/30 00:02:48;;;;;;;11.88;7.47;;;;;;;20.27;96.74;98812.66;1754168;81;21031;-74
2021/07/30 00:05:14;;;;;;;15.98;7.67;;;;;;;20.25;96.94;98808.08;1754235;81;21523;-75
2021/07/30 00:07:40;;;;;;;12.15;7.17;;;;;;;20.23;97.16;98804.89;1754631;81;20928;-76
2021/07/30 00:10:09;;;;;;;11.40;7.35;;;;;;;20.23;97.15;98808.28;1754218;81;20929;-74
2021/07/30 00:12:36;;;;;;;20.62;7.58;;;;;;;20.21;97.32;98798.95;1754513;81;20882;-74
2021/07/30 00:15:06;;;;;;;12.82;7.00;;;;;;;20.21;97.58;98795.38;1754263;81;21096;-75
2021/07/30 00:17:34;;;;;;;10.70;7.37;;;;;;;20.22;97.59;98799.75;1754330;81;20956;-74
2021/07/30 00:20:05;;;;;;;10.63;7.60;;;;;;;20.20;97.67;98800.15;1754246;81;21542;-74
2021/07/30 00:22:31;;;;;;;12.65;7.75;;;;;;;20.18;97.74;98804.52;1754478;81;21011;-74
2021/07/30 00:24:58;;;;;;;11.30;7.60;;;;;;;20.15;97.86;98799.75;1754144;81;20870;-74
2021/07/30 00:27:24;;;;;;;14.47;7.95;;;;;;;20.11;98.00;98797.76;1754509;81;21004;-74
2021/07/30 00:29:53;;;;;;;10.85;8.00;;;;;;;20.10;98.23;98798.16;1753988;81;20929;-74
2021/07/30 00:32:19;;;;;;;13.03;7.58;;;;;;;20.09;98.39;98797.95;1763339;81;20877;-74
2021/07/30 00:34:46;;;;;;;16.67;7.92;;;;;;;20.07;98.37;98796.16;1762237;80;20974;-74
2021/07/30 00:37:13;;;;;;;12.33;7.37;;;;;;;20.04;98.37;98792.77;1767149;81;20979;-74
2021/07/30 00:39:39;;;;;;;11.85;7.55;;;;;;;20.03;98.62;98788.39;1767933;81;21501;-73
2021/07/30 00:42:06;;;;;;;13.58;8.50;;;;;;;19.99;98.69;98784.81;1768529;81;21485;-72
2021/07/30 00:44:33;;;;;;;11.57;7.92;;;;;;;19.97;99.02;98778.84;1768665;81;20963;-73
2021/07/30 00:46:59;;;;;;;13.58;7.03;;;;;;;19.94;99.04;98781.82;1768809;81;20919;-73
2021/07/30 00:49:25;;;;;;;22.62;8.68;;;;;;;19.91;99.04;98778.44;1769064;80;20876;-73
2021/07/30 00:51:52;;;;;;;13.40;7.92;;;;;;;19.88;99.14;98775.65;1768786;81;21129;-72
2021/07/30 00:54:19;;;;;;;12.93;7.95;;;;;;;19.85;99.28;98775.84;1768436;80;20880;-72
2021/07/30 00:56:47;;;;;;;13.85;7.87;;;;;;;19.81;99.34;98770.06;1768717;81;20880;-72
2021/07/30 00:59:13;;;;;;;10.98;7.62;;;;;;;19.77;99.45;98774.23;1768497;80;21066;-73
2021/07/30 01:01:40;;;;;;;13.45;6.80;;;;;;;19.75;99.52;98769.66;1768961;81;21540;-72
2021/07/30 01:04:06;;;;;;;13.88;7.28;;;;;;;19.73;99.74;98772.84;1768841;80;21066;-72
2021/07/30 01:06:33;;;;;;;13.70;7.67;;;;;;;19.72;99.64;98769.06;1768597;81;20974;-72
2021/07/30 01:09:01;;;;;;;14.70;8.33;;;;;;;19.69;99.57;98773.43;1768966;81;20994;-72
2021/07/30 01:11:28;;;;;;;13.00;8.60;;;;;;;19.65;99.55;98774.02;1768725;81;20892;-72
2021/07/30 01:13:54;;;;;;;9.25;7.37;;;;;;;19.62;99.59;98776.23;1768829;80;21020;-72
2021/07/30 01:16:20;;;;;;;12.93;7.30;;;;;;;19.61;99.73;98773.84;1768792;81;23296;-72
2021/07/30 01:18:47;;;;;;;9.25;7.05;;;;;;;19.57;99.78;98778.00;1768746;80;20896;-72
2021/07/30 01:21:23;;;;;;;10.20;7.80;;;;;;;19.55;99.73;98784.56;1768890;81;21454;-72
2021/07/30 01:23:49;;;;;;;11.05;8.33;;;;;;;19.49;99.81;98781.93;1768795;80;20961;-73
2021/07/30 01:26:19;;;;;;;13.38;8.13;;;;;;;19.46;100.00;98788.28;1768902;81;20939;-73
2021/07/30 01:28:47;;;;;;;13.05;8.68;;;;;;;19.45;100.00;98793.05;1768661;79;21136;-73
2021/07/30 01:31:13;;;;;;;11.38;7.60;;;;;;;19.43;100.00;98798.81;1768586;80;20971;-71
2021/07/30 01:33:40;;;;;;;11.95;8.58;;;;;;;19.39;100.00;98791.84;1768925;81;20848;-75
2021/07/30 01:36:06;;;;;;;13.00;8.80;;;;;;;19.37;100.00;98797.59;1768770;80;21015;-74
2021/07/30 01:38:33;;;;;;;13.98;9.00;;;;;;;19.33;100.00;98800.95;1768748;81;20979;-74
2021/07/30 01:41:09;;;;;;;12.30;9.08;;;;;;;19.29;100.00;98798.16;1768877;80;21137;-74
2021/07/30 01:43:43;;;;;;;13.65;8.95;;;;;;;19.26;100.00;98800.34;1768782;80;20880;-74
2021/07/30 01:46:10;;;;;;;12.50;9.03;;;;;;;19.23;100.00;98802.51;1769313;81;20876;-75
2021/07/30 01:48:37;;;;;;;13.38;9.20;;;;;;;19.20;100.00;98806.08;1768791;80;21478;-75
2021/07/30 01:51:03;;;;;;;17.52;8.98;;;;;;;19.18;100.00;98800.10;1769135;81;20931;-75
2021/07/30 01:53:31;;;;;;;11.80;8.48;;;;;;;19.17;100.00;98803.27;1768870;80;21379;-75
2021/07/30 01:56:03;;;;;;;13.38;8.50;;;;;;;19.13;100.00;98804.06;1774896;80;20872;-75
2021/07/30 01:58:27;;;;;;;19.52;8.28;;;;;;;19.10;100.00;98803.45;1768876;80;20916;-75
2021/07/30 02:00:54;;;;;;;11.25;8.55;;;;;;;19.07;100.00;98802.84;1768779;80;20932;-73
2021/07/30 02:03:21;;;;;;;17.45;8.23;;;;;;;19.05;100.00;98807.22;1768714;80;21018;-73
2021/07/30 02:05:47;;;;;;;12.98;8.58;;;;;;;19.00;100.00;98809.78;1768994;80;22102;-73
2021/07/30 02:08:13;;;;;;;15.23;9.05;;;;;;;18.99;100.00;98815.73;1768684;81;20895;-75
2021/07/30 02:10:40;;;;;;;15.13;9.48;;;;;;;18.95;100.00;98813.53;1768825;80;20848;-75
2021/07/30 02:15:51;;;;;;;11.70;8.63;;;;;;;18.88;100.00;98812.89;1769180;81;21558;-73
2021/07/30 02:18:18;;;;;;;13.35;8.80;;;;;;;18.85;100.00;98817.84;1768927;80;21842;-73
2021/07/30 02:20:45;;;;;;;15.88;8.63;;;;;;;18.81;100.00;98819.80;1768936;81;20932;-73
2021/07/30 02:23:11;;;;;;;15.40;9.20;;;;;;;18.78;100.00;98815.02;1768856;80;20976;-72
2021/07/30 02:25:38;;;;;;;18.10;9.25;;;;;;;18.76;100.00;98820.97;1769073;80;20987;-73
2021/07/30 02:28:04;;;;;;;13.72;8.95;;;;;;;18.75;100.00;98819.96;1768743;79;20888;-72
2021/07/30 02:30:31;;;;;;;12.70;9.28;;;;;;;18.73;100.00;98823.72;1768774;80;21128;-73
2021/07/30 02:32:57;;;;;;;14.73;9.15;;;;;;;18.72;100.00;98824.91;1773523;80;20971;-73
2021/07/30 02:35:24;;;;;;;21.20;9.35;;;;;;;18.71;100.00;98822.72;1749810;82;21454;-73
2021/07/30 02:37:50;;;;;;;14.83;9.08;;;;;;;18.69;100.00;98825.68;1775880;80;21493;-73
2021/07/30 02:40:17;;;;;;;17.52;9.03;;;;;;;18.69;100.00;98831.24;1749655;81;20924;-73
2021/07/30 02:42:43;;;;;;;16.57;9.30;;;;;;;18.68;100.00;98829.64;1776210;80;21799;-73
2021/07/30 02:45:11;;;;;;;13.85;8.45;;;;;;;18.67;100.00;98835.00;1749608;82;20911;-72
2021/07/30 02:47:38;;;;;;;9.88;8.35;;;;;;;18.66;100.00;98838.97;1775949;80;20884;-72
2021/07/30 02:50:07;;;;;;;13.70;8.85;;;;;;;18.66;100.00;98838.97;1749599;82;20868;-72
2021/07/30 02:52:34;;;;;;;14.85;8.43;;;;;;;18.66;100.00;98838.97;1775108;80;21086;-72
2021/07/30 02:55:00;;;;;;;15.35;8.95;;;;;;;18.65;100.00;98842.33;1748338;82;21548;-72
2021/07/30 02:57:27;;;;;;;14.45;9.85;;;;;;;18.63;100.00;98848.88;1774472;80;21030;-73
2021/07/30 02:59:53;;;;;;;15.20;9.45;;;;;;;18.63;100.00;98852.24;1748317;82;21078;-73
2021/07/30 03:02:20;;;;;;;15.90;8.93;;;;;;;18.62;100.00;98851.45;1774554;80;21998;-74
2021/07/30 03:04:46;;;;;;;13.03;8.85;;;;;;;18.66;100.00;98852.27;1748486;82;21058;-73
2021/07/30 03:07:13;;;;;;;14.73;8.80;;;;;;;18.67;100.00;98855.84;1775434;80;21056;-73
2021/07/30 03:09:39;;;;;;;13.83;9.33;;;;;;;18.67;100.00;98858.03;1749537;82;20868;-73
2021/07/30 03:12:07;;;;;;;9.53;8.48;;;;;;;18.69;100.00;98861.82;1775923;80;21406;-73
2021/07/30 03:14:34;;;;;;;14.15;9.10;;;;;;;18.73;100.00;98861.25;1750172;82;20967;-72
2021/07/30 03:17:02;;;;;;;13.40;8.90;;;;;;;18.73;100.00;98863.44;1776028;80;21474;-72
2021/07/30 03:19:28;;;;;;;15.20;9.15;;;;;;;18.77;100.00;98867.05;1749916;82;21935;-72
2021/07/30 03:21:56;;;;;;;11.30;8.73;;;;;;;18.83;100.00;98876.42;1775608;80;20932;-72
2021/07/30 03:24:22;;;;;;;15.13;8.70;;;;;;;18.86;100.00;98879.81;1749012;82;21556;-72
2021/07/30 03:26:49;;;;;;;17.32;9.10;;;;;;;18.90;100.00;98880.64;1775507;80;20903;-72
2021/07/30 03:29:15;;;;;;;16.60;8.23;;;;;;;18.95;100.00;98878.88;1776062;79;21069;-73
2021/07/30 03:31:47;;;;;;;15.58;9.63;;;;;;;18.97;100.00;98877.31;1749486;81;20947;-72
2021/07/30 03:34:11;;;;;;;12.68;8.20;;;;;;;19.04;100.00;98886.30;1741098;82;20938;-72
2021/07/30 03:36:37;;;;;;;14.07;8.95;;;;;;;19.08;100.00;98887.09;1695161;84;20989;-72
2021/07/30 03:39:04;;;;;;;10.05;7.90;;;;;;;19.11;100.00;98887.11;1695138;84;20937;-72
2021/07/30 03:41:33;;;;;;;11.53;9.05;;;;;;;19.16;100.00;98892.90;1695390;84;20945;-72
2021/07/30 03:43:59;;;;;;;15.48;8.98;;;;;;;19.20;100.00;98899.88;1695428;83;21947;-73
2021/07/30 03:46:26;;;;;;;11.33;9.08;;;;;;;19.25;100.00;98899.50;1695194;84;20898;-72
2021/07/30 03:48:53;;;;;;;13.10;9.10;;;;;;;19.31;100.00;98903.52;1695606;83;20997;-72
2021/07/30 03:51:20;;;;;;;13.53;9.23;;;;;;;19.38;100.00;98901.57;1695365;84;21436;-74
2021/07/30 03:53:47;;;;;;;10.53;8.95;;;;;;;19.44;100.00;98903.39;1695278;84;20926;-73
2021/07/30 03:56:16;;;;;;;11.18;9.18;;;;;;;19.50;99.99;98906.00;1695172;83;21491;-72
2021/07/30 03:58:45;;;;;;;12.28;8.98;;;;;;;19.56;99.73;98910.03;1695220;84;21550;-72
2021/07/30 04:01:11;;;;;;;12.82;10.40;;;;;;;19.60;98.54;98910.85;1695142;83;21025;-72
2021/07/30 04:03:39;;;;;;;10.85;9.15;;;;;;;19.62;97.23;98914.05;1695161;84;21917;-72
2021/07/30 04:06:07;;;;;;;12.20;8.78;;;;;;;19.65;97.35;98919.39;1695188;84;20906;-72
2021/07/30 04:08:33;;;;;;;15.20;9.55;;;;;;;19.69;97.01;98918.22;1695097;84;21084;-72
2021/07/30 04:11:01;;;;;;;14.40;10.20;;;;;;;19.74;96.59;98919.83;1695396;84;21417;-72
2021/07/30 04:13:28;;;;;;;12.75;9.15;;;;;;;19.76;96.23;98916.06;1695114;84;21436;-73
2021/07/30 04:15:54;;;;;;;13.28;9.85;;;;;;;19.78;95.52;98915.88;1695418;84;21480;-73
2021/07/30 04:18:21;;;;;;;15.23;10.00;;;;;;;19.82;95.45;98917.27;1695155;84;21024;-73
2021/07/30 04:20:47;;;;;;;13.45;9.85;;;;;;;19.87;95.23;98923.06;1695250;83;21152;-73
2021/07/30 04:23:13;;;;;;;13.48;10.08;;;;;;;19.92;95.13;98920.69;1695325;83;21481;-73
2021/07/30 04:25:41;;;;;;;12.58;9.60;;;;;;;20.00;95.00;98924.30;1695225;83;20928;-73
2021/07/30 04:28:07;;;;;;;11.30;9.63;;;;;;;20.06;94.31;98924.91;1695092;84;20898;-74
2021/07/30 04:30:35;;;;;;;13.83;10.20;;;;;;;20.12;93.42;98928.11;1695303;84;20929;-73
2021/07/30 04:33:02;;;;;;;11.38;9.58;;;;;;;20.18;94.00;98931.31;1685840;84;21144;-73
2021/07/30 04:35:28;;;;;;;11.50;10.05;;;;;;;20.24;93.68;98926.92;1708917;84;21432;-73
2021/07/30 04:37:56;;;;;;;12.80;10.25;;;;;;;20.28;93.83;98918.77;1698897;84;21006;-73
2021/07/30 04:40:23;;;;;;;13.95;9.48;;;;;;;20.36;93.74;98925.15;1749760;82;21004;-74
2021/07/30 04:42:49;;;;;;;14.90;10.80;;;;;;;20.43;92.77;98927.98;1750066;81;20904;-73
2021/07/30 04:45:17;;;;;;;16.52;11.12;;;;;;;20.50;93.10;98928.59;1749798;82;21129;-73
2021/07/30 04:47:44;;;;;;;14.53;9.88;;;;;;;20.62;93.08;98927.60;1749820;82;20995;-73
2021/07/30 04:50:10;;;;;;;13.40;10.40;;;;;;;20.73;93.24;98931.78;1750159;82;21500;-73
2021/07/30 04:52:38;;;;;;;16.02;9.78;;;;;;;20.84;92.93;98930.36;1749995;82;20917;-73
2021/07/30 04:55:07;;;;;;;14.30;10.38;;;;;;;20.95;92.56;98927.77;1720964;82;20901;-73
2021/07/30 04:57:33;;;;;;;15.75;10.13;;;;;;;21.08;91.92;98928.95;1709179;84;21558;-72
2021/07/30 05:00:00;;;;;;;13.72;10.58;;;;;;;21.13;90.27;98924.16;1699248;84;20868;-73
2021/07/30 05:02:26;;;;;;;13.98;10.68;;;;;;;21.14;90.09;98927.95;1750048;82;21433;-73
2021/07/30 05:04:56;;;;;;;12.20;10.10;;;;;;;21.24;90.57;98926.36;1760403;79;20939;-75
2021/07/30 05:07:23;;;;;;;14.35;10.30;;;;;;;21.34;90.01;98936.71;1788781;79;20984;-74
2021/07/30 05:09:49;;;;;;;11.75;10.43;;;;;;;21.43;89.15;98938.45;1790630;79;21434;-74
2021/07/30 05:12:16;;;;;;;11.97;9.83;;;;;;;21.49;89.13;98935.45;1805775;79;21409;-73
2021/07/30 05:14:44;;;;;;;14.73;10.38;;;;;;;21.56;88.92;98935.42;1805850;79;20924;-73
2021/07/30 05:17:13;;;;;;;11.18;10.08;;;;;;;21.60;88.28;98942.40;1805763;79;21470;-72
2021/07/30 05:19:41;;;;;;;15.48;11.18;;;;;;;21.66;87.67;98944.38;1805752;79;20832;-72
2021/07/30 05:22:07;;;;;;;12.18;10.43;;;;;;;21.69;87.35;98942.17;1806120;79;21107;-73
2021/07/30 05:24:37;;;;;;;14.65;10.68;;;;;;;21.77;88.17;98947.13;1800289;79;20915;-72
2021/07/30 05:27:06;;;;;;;12.68;10.53;;;;;;;21.86;87.68;98950.28;1800638;79;21443;-72
2021/07/30 05:29:33;;;;;;;16.55;10.55;;;;;;;21.93;87.01;98950.86;1799907;78;20932;-72
2021/07/30 05:31:59;;;;;;;13.80;10.88;;;;;;;22.02;87.06;98956.80;1800400;79;20829;-71
2021/07/30 05:34:26;;;;;;;14.70;10.00;;;;;;;22.13;86.87;98950.56;1790480;79;21826;-72
2021/07/30 05:36:52;;;;;;;10.70;9.60;;;;;;;22.22;86.24;98954.31;1789431;80;20952;-71
2021/07/30 05:39:19;;;;;;;38.17;15.75;;;;;;;22.34;85.58;98960.23;1789440;79;20865;-71
2021/07/30 05:41:46;;;;;;;103.97;28.57;;;;;;;22.44;84.54;98957.77;1789368;79;20945;-72
2021/07/30 05:44:13;;;;;;;39.15;15.78;;;;;;;22.56;84.65;98959.46;1789467;80;20888;-72
2021/07/30 05:46:40;;;;;;;15.28;10.95;;;;;;;22.66;83.93;98957.80;1789494;80;21116;-72
2021/07/30 05:49:07;;;;;;;42.85;16.32;;;;;;;22.73;82.77;98955.74;1789462;79;21426;-71
2021/07/30 05:51:36;;;;;;;18.35;12.23;;;;;;;22.77;82.15;98956.31;1789485;80;20901;-72
2021/07/30 05:54:04;;;;;;;16.60;11.50;;;;;;;22.79;82.21;98960.33;1789424;79;20980;-72
2021/07/30 05:56:30;;;;;;;12.20;10.20;;;;;;;22.86;82.76;98958.88;1789748;80;21422;-72
2021/07/30 05:58:59;;;;;;;12.75;9.90;;;;;;;22.91;81.72;98958.43;1791030;78;21071;-72
2021/07/30 06:01:26;;;;;;;12.80;10.32;;;;;;;22.95;81.00;98966.19;1823079;78;20943;-72
2021/07/30 06:03:52;;;;;;;12.98;9.75;;;;;;;22.95;80.47;98955.00;1823291;78;20919;-71
2021/07/30 06:06:19;;;;;;;12.65;10.00;;;;;;;22.98;80.39;98951.38;1823471;78;21466;-71
2021/07/30 06:08:47;;;;;;;13.22;10.63;;;;;;;23.05;80.44;98947.72;1823246;78;20840;-71
2021/07/30 06:11:14;;;;;;;15.75;10.08;;;;;;;23.14;81.14;98953.60;1796449;78;22041;-71
2021/07/30 06:13:41;;;;;;;12.85;9.58;;;;;;;23.24;81.54;98947.71;1749518;82;20856;-71
2021/07/30 06:16:10;;;;;;;23.77;10.70;;;;;;;23.35;80.09;98942.19;1795677;80;20863;-71
2021/07/30 06:18:38;;;;;;;14.78;9.48;;;;;;;23.46;80.05;98940.68;1795273;79;21379;-71
2021/07/30 06:21:05;;;;;;;14.05;10.15;;;;;;;23.57;79.20;98937.19;1795266;80;20923;-71
2021/07/30 06:23:32;;;;;;;13.38;10.43;;;;;;;23.71;79.48;98939.00;1749728;81;21521;-71
2021/07/30 06:25:59;;;;;;;14.38;9.30;;;;;;;23.83;78.99;98945.46;1773290;81;21431;-71
2021/07/30 06:28:25;;;;;;;17.98;9.58;;;;;;;23.95;77.56;98936.50;1749571;80;20954;-72
2021/07/30 06:30:52;;;;;;;10.40;8.73;;;;;;;24.05;77.71;98941.78;1773638;81;20963;-71
2021/07/30 06:33:21;;;;;;;219.70;41.70;;;;;;;24.13;77.20;98941.87;1749870;81;21382;-72
2021/07/30 06:35:50;;;;;;;28.05;12.50;;;;;;;24.22;76.90;98937.94;1750329;80;21669;-73
2021/07/30 06:38:16;;;;;;;25.00;12.00;;;;;;;24.29;75.29;98946.25;1750051;82;20885;-74
2021/07/30 06:40:47;;;;;;;18.42;9.68;;;;;;;24.34;75.80;98942.98;1749916;81;21527;-75
2021/07/30 06:43:13;;;;;;;13.60;8.83;;;;;;;24.40;75.23;98936.89;1741157;82;20875;-75
2021/07/30 06:45:40;;;;;;;10.70;9.25;;;;;;;24.42;74.63;98942.27;1730241;83;20905;-76
2021/07/30 06:48:07;;;;;;;50.12;17.52;;;;;;;24.43;74.05;98938.86;1730313;83;21866;-76
2021/07/30 06:50:34;;;;;;;12.15;9.83;;;;;;;24.45;75.06;98941.42;1730024;83;20961;-77
2021/07/30 06:53:01;;;;;;;16.45;9.65;;;;;;;24.55;74.47;98936.26;1730182;83;20882;-76
2021/07/30 06:55:27;;;;;;;17.45;10.25;;;;;;;24.62;73.99;98933.95;1730189;83;20928;-76
2021/07/30 06:57:53;;;;;;;9.73;8.73;;;;;;;24.68;73.96;98934.45;1730149;83;20961;-75
2021/07/30 07:00:20;;;;;;;12.82;8.45;;;;;;;24.77;73.20;98935.31;1730176;83;21116;-75
2021/07/30 07:02:47;;;;;;;16.32;8.63;;;;;;;24.87;73.03;98933.52;1730016;83;20957;-78
2021/07/30 07:05:13;;;;;;;12.15;8.50;;;;;;;24.97;72.54;98936.18;1729732;83;20956;-77
2021/07/30 07:07:39;;;;;;;19.77;9.53;;;;;;;25.12;72.35;98940.94;1745681;81;20884;-75
2021/07/30 07:10:07;;;;;;;18.02;8.93;;;;;;;25.27;71.93;98934.45;1766785;81;21053;-75
2021/07/30 07:12:34;;;;;;;11.18;9.48;;;;;;;25.43;70.46;98932.33;1749458;82;21120;-76
2021/07/30 07:15:00;;;;;;;8.63;7.72;;;;;;;25.58;69.92;98935.84;1741608;82;21385;-77
2021/07/30 07:17:27;;;;;;;9.80;8.40;;;;;;;25.70;66.58;98936.45;1749008;82;20858;-75
2021/07/30 07:19:54;;;;;;;11.15;8.28;;;;;;;25.71;66.84;98938.04;1740934;82;20958;-77
2021/07/30 07:22:20;;;;;;;17.92;9.40;;;;;;;25.76;67.87;98936.13;1730083;83;20972;-77
2021/07/30 07:24:47;;;;;;;10.60;7.60;;;;;;;25.88;67.68;98940.48;1729650;83;21179;-75
2021/07/30 07:27:14;;;;;;;13.50;6.87;;;;;;;26.00;67.09;98939.80;1730194;83;21016;-78
2021/07/30 07:29:40;;;;;;;8.90;7.17;;;;;;;26.10;65.69;98940.01;1730184;83;21380;-77
2021/07/30 07:32:07;;;;;;;10.90;6.92;;;;;;;26.18;65.14;98939.42;1730341;83;20917;-74
2021/07/30 07:34:33;;;;;;;8.48;6.92;;;;;;;26.33;64.43;98946.17;1724861;82;20978;-74
2021/07/30 07:37:00;;;;;;;11.53;7.08;;;;;;;26.47;64.83;98939.60;1722500;83;21155;-75
2021/07/30 07:39:27;;;;;;;7.83;7.03;;;;;;;26.65;63.25;98946.19;1723031;83;20859;-74
2021/07/30 07:41:54;;;;;;;14.28;7.10;;;;;;;26.76;62.33;98944.53;1722618;83;20914;-69
2021/07/30 07:44:20;;;;;;;8.98;6.55;;;;;;;26.86;61.79;98949.90;1723300;83;20945;-73
2021/07/30 07:46:48;;;;;;;11.33;7.30;;;;;;;26.86;60.95;98955.53;1722706;83;20958;-72
2021/07/30 07:49:15;;;;;;;12.75;6.62;;;;;;;26.87;62.89;98957.12;1722622;83;21770;-72
2021/07/30 07:51:41;;;;;;;10.48;7.00;;;;;;;26.92;60.47;98960.02;1721473;83;21604;-72
2021/07/30 07:54:08;;;;;;;11.38;7.00;;;;;;;26.81;59.44;98962.30;1722250;83;20957;-74
2021/07/30 07:56:34;;;;;;;7.78;6.47;;;;;;;26.72;60.76;98962.91;1722035;83;21512;-72
2021/07/30 07:59:01;;;;;;;8.38;6.58;;;;;;;26.79;61.16;98962.75;1720780;83;21009;-73
2021/07/30 08:01:27;;;;;;;8.88;6.87;;;;;;;26.90;59.40;98960.45;1720812;83;21661;-75
2021/07/30 08:03:54;;;;;;;9.60;6.33;;;;;;;26.88;59.86;98967.15;1721693;83;21563;-74
2021/07/30 08:06:22;;;;;;;7.08;5.90;;;;;;;26.76;59.43;98963.63;1722272;83;20870;-74
2021/07/30 08:08:49;;;;;;;6.90;6.03;;;;;;;26.57;59.87;98961.69;1722409;83;21803;-74
2021/07/30 08:11:16;;;;;;;9.68;6.78;;;;;;;26.62;59.38;98962.55;1722397;83;21381;-73
2021/07/30 08:13:44;;;;;;;10.48;6.08;;;;;;;26.80;58.83;98960.11;1722981;83;20870;-73
2021/07/30 08:16:11;;;;;;;6.35;5.67;;;;;;;27.05;57.28;98964.36;1722697;83;20878;-73
2021/07/30 08:18:39;;;;;;;8.68;6.20;;;;;;;27.31;55.88;98953.39;1724170;82;20870;-75
2021/07/30 08:21:07;;;;;;;11.15;6.10;;;;;;;27.50;54.70;98961.55;1724357;83;21456;-73
2021/07/30 08:23:33;;;;;;;10.20;6.08;;;;;;;27.61;55.11;98962.08;1724314;83;20965;-73
2021/07/30 08:26:00;;;;;;;6.05;5.42;;;;;;;27.89;55.29;98956.23;1724294;83;21197;-73
2021/07/30 08:28:26;;;;;;;10.45;6.05;;;;;;;28.38;54.41;98954.58;1724290;81;20855;-74
2021/07/30 08:30:53;;;;;;;7.45;5.70;;;;;;;28.88;52.91;98949.58;1724348;83;20917;-74
2021/07/30 08:33:20;;;;;;;9.73;5.80;;;;;;;29.26;50.80;98955.13;1723654;83;21031;-74
2021/07/30 08:35:47;;;;;;;6.10;5.50;;;;;;;29.51;51.45;98955.05;1714242;83;21320;-74
2021/07/30 08:38:13;;;;;;;6.95;4.75;;;;;;;29.88;50.38;98963.20;1714062;83;21214;-74
2021/07/30 08:40:40;;;;;;;6.37;5.78;;;;;;;30.25;49.44;98956.98;1713943;83;20871;-74
2021/07/30 08:43:13;;;;;;;6.20;5.20;;;;;;;30.55;47.81;98948.49;1714096;83;20839;-74
2021/07/30 08:45:39;;;;;;;8.80;5.83;;;;;;;30.61;47.38;98950.75;1712842;83;21422;-75
2021/07/30 08:48:05;;;;;;;7.33;5.70;;;;;;;30.42;48.00;98951.27;1712559;83;20866;-75
2021/07/30 08:50:33;;;;;;;5.53;4.95;;;;;;;30.19;48.29;98951.93;1712585;83;21792;-74
2021/07/30 08:53:04;;;;;;;6.83;5.25;;;;;;;29.99;46.85;98952.11;1712552;83;20911;-74
2021/07/30 08:55:31;;;;;;;7.28;4.80;;;;;;;29.81;47.76;98945.08;1712842;83;21426;-75
2021/07/30 08:57:58;;;;;;;10.13;5.25;;;;;;;29.89;48.25;98951.26;1712472;83;20966;-75
2021/07/30 09:00:25;;;;;;;9.08;5.17;;;;;;;30.09;46.79;98941.80;1711853;83;21021;-74
2021/07/30 09:02:55;;;;;;;5.33;4.83;;;;;;;30.35;48.31;98941.00;1712370;83;21134;-71
2021/07/30 09:05:32;;;;;;;5.08;4.58;;;;;;;30.67;47.39;98943.98;1682768;83;21405;-65
2021/07/30 09:08:01;;;;;;;6.33;4.87;;;;;;;31.02;43.14;98942.35;1712351;83;20910;-70
2021/07/30 09:10:38;;;;;;;5.45;4.22;;;;;;;31.13;43.47;98943.52;1712520;83;20843;-67
2021/07/30 09:13:25;;;;;;;4.33;3.92;;;;;;;31.31;42.68;98949.81;1714167;83;21532;-69
2021/07/30 09:16:06;;;;;;;7.45;4.50;;;;;;;31.53;39.46;98941.16;1688518;82;20913;-68
2021/07/30 09:18:41;;;;;;;4.67;4.28;;;;;;;31.63;40.37;98940.53;1702599;83;21013;-67
2021/07/30 09:21:30;;;;;;;5.53;4.50;;;;;;;31.80;40.41;98931.84;1713025;83;21618;-68
2021/07/30 09:24:05;;;;;;;6.42;4.40;;;;;;;32.01;39.95;98936.55;1713415;83;21515;-71
2021/07/30 09:26:41;;;;;;;5.55;4.12;;;;;;;32.18;39.10;98944.08;1713563;83;20879;-68
2021/07/30 09:29:21;;;;;;;5.65;4.30;;;;;;;32.01;38.15;98936.55;1713233;82;21138;-68
2021/07/30 09:31:54;;;;;;;6.53;4.67;;;;;;;31.67;38.07;98932.64;1713322;83;20930;-69
2021/07/30 09:34:40;;;;;;;6.40;4.22;;;;;;;31.52;39.88;98935.33;1716527;82;20930;-69
2021/07/30 09:37:26;;;;;;;4.78;4.30;;;;;;;31.48;39.59;98936.91;1724069;83;21441;-69
2021/07/30 09:39:54;;;;;;;3.90;3.52;;;;;;;31.18;39.36;98937.84;1722641;83;20914;-72
2021/07/30 09:42:32;;;;;;;7.08;4.30;;;;;;;30.96;40.55;98935.73;1723229;83;21642;-67
2021/07/30 09:45:03;;;;;;;4.85;4.35;;;;;;;31.00;41.66;98939.98;1722679;83;20870;-68
2021/07/30 09:47:35;;;;;;;4.80;4.30;;;;;;;31.07;41.07;98932.60;1722729;83;20906;-70
2021/07/30 09:50:07;;;;;;;8.00;4.67;;;;;;;30.88;40.45;98934.61;1715484;83;20948;-70
2021/07/30 09:52:38;;;;;;;5.90;4.12;;;;;;;30.54;41.43;98937.63;1712165;83;21487;-69
2021/07/30 09:55:07;;;;;;;6.40;4.53;;;;;;;30.48;40.71;98931.00;1695085;84;21154;-70
2021/07/30 09:57:38;;;;;;;6.95;4.50;;;;;;;30.63;40.43;98933.42;1695459;84;20964;-69
2021/07/30 10:00:10;;;;;;;5.12;4.62;;;;;;;30.90;40.39;98931.30;1665667;84;20968;-68
2021/07/30 10:02:42;;;;;;;6.40;3.90;;;;;;;31.27;39.45;98932.16;1665967;84;20857;-74
2021/07/30 10:05:10;;;;;;;4.92;4.25;;;;;;;31.56;40.57;98928.08;1688447;84;20980;-70
2021/07/30 10:07:38;;;;;;;6.30;4.15;;;;;;;31.87;39.66;98922.22;1695490;84;22140;-67
2021/07/30 10:10:28;;;;;;;6.95;3.98;;;;;;;31.95;37.93;98931.36;1695104;84;20913;-67
2021/07/30 10:13:00;;;;;;;4.75;3.55;;;;;;;31.78;38.93;98941.47;1694321;84;20955;-69
2021/07/30 10:15:26;;;;;;;11.60;3.90;;;;;;;31.65;38.55;98937.38;1695225;84;20932;-71
2021/07/30 10:17:57;;;;;;;4.97;4.47;;;;;;;31.68;36.47;98932.20;1708220;82;20941;-71
2021/07/30 10:20:25;;;;;;;4.12;3.70;;;;;;;31.75;35.37;98921.95;1724260;83;21500;-69
2021/07/30 10:23:13;;;;;;;6.33;4.55;;;;;;;31.85;35.62;98928.38;1724343;83;20996;-70
2021/07/30 10:25:43;;;;;;;4.95;4.28;;;;;;;31.88;36.22;98921.75;1724085;83;20905;-75
2021/07/30 10:28:26;;;;;;;8.98;4.62;;;;;;;31.55;37.24;98927.29;1724107;81;21041;-71
2021/07/30 10:31:01;;;;;;;4.55;4.05;;;;;;;31.07;38.42;98927.56;1724295;83;21488;-71
2021/07/30 10:33:37;;;;;;;4.67;3.72;;;;;;;30.87;39.64;98923.11;1724329;83;21157;-69
2021/07/30 10:36:12;;;;;;;5.75;4.22;;;;;;;31.09;40.49;98923.63;1717526;83;21001;-72
2021/07/30 10:38:39;;;;;;;5.15;4.03;;;;;;;31.37;38.13;98923.82;1714134;83;21476;-69
2021/07/30 10:41:11;;;;;;;5.87;4.22;;;;;;;31.58;36.70;98915.00;1716466;83;21005;-69
2021/07/30 10:44:04;;;;;;;6.03;4.47;;;;;;;31.70;37.83;98909.81;1716836;83;21489;-70
2021/07/30 10:46:32;;;;;;;5.95;4.10;;;;;;;31.91;37.61;98908.66;1716829;83;21148;-70
2021/07/30 10:48:58;;;;;;;6.58;4.40;;;;;;;31.96;37.77;98910.22;1718297;83;21471;-70
2021/07/30 10:51:31;;;;;;;8.20;4.03;;;;;;;31.87;37.47;98910.23;1716882;82;43392;-70
2021/07/30 10:54:01;;;;;;;4.57;3.90;;;;;;;31.94;37.17;98904.86;1718213;83;20921;-70
2021/07/30 10:56:34;;;;;;;5.97;4.53;;;;;;;31.93;34.91;98910.39;1718061;82;20948;-71
2021/07/30 10:59:06;;;;;;;6.62;4.40;;;;;;;32.11;37.02;98901.20;1718277;83;21145;-70
2021/07/30 11:01:40;;;;;;;5.15;4.20;;;;;;;32.41;35.93;98897.16;1717959;83;20913;-70
2021/07/30 11:04:06;;;;;;;6.17;4.17;;;;;;;32.62;35.88;98894.69;1715136;83;20914;-70
2021/07/30 11:06:45;;;;;;;5.25;3.98;;;;;;;32.57;35.50;98896.77;1717191;81;21529;-70
2021/07/30 11:09:16;;;;;;;5.70;3.95;;;;;;;32.57;35.78;98893.14;1716851;83;21056;-70
2021/07/30 11:12:05;;;;;;;4.90;3.83;;;;;;;32.59;35.80;98889.97;1716978;83;21149;-70
2021/07/30 11:14:38;;;;;;;6.08;4.42;;;;;;;32.84;37.39;98885.12;1715992;83;21012;-70
2021/07/30 11:17:08;;;;;;;4.17;3.75;;;;;;;33.14;35.03;98881.10;1726606;82;21053;-70
2021/07/30 11:19:47;;;;;;;7.33;3.63;;;;;;;33.46;34.43;98877.39;1745453;82;20999;-70
2021/07/30 11:22:18;;;;;;;4.67;3.58;;;;;;;33.80;32.13;98878.02;1744281;81;21101;-70
2021/07/30 11:24:49;;;;;;;3.87;3.52;;;;;;;33.82;34.63;98874.05;1730261;82;21123;-70
2021/07/30 11:27:18;;;;;;;4.67;3.80;;;;;;;33.83;33.26;98874.83;1722662;82;20975;-70
2021/07/30 11:29:52;;;;;;;3.52;3.22;;;;;;;33.77;32.85;98870.44;1727855;82;21015;-70
2021/07/30 11:32:22;;;;;;;4.33;3.85;;;;;;;33.68;31.98;98878.42;1726174;82;20929;-70